sensor_id;sensor_type;location;lat;lon;timestamp;P1;durP1;ratioP1;P2;durP2;ratioP2
9997;SDS011;5038;53.064;8.624;2023-05-16T00:00:21;6.90;;;3.33;;
9997;SDS011;5038;53.064;8.624;2023-05-16T00:02:50;8.40;;;3.60;;
9997;SDS011;5038;53.064;8.624;2023-05-16T00:05:19;7.27;;;3.60;;
9997;SDS011;5038;53.064;8.624;2023-05-16T00:07:47;9.97;;;4.03;;
9997;SDS011;5038;53.064;8.624;2023-05-16T00:10:15;8.57;;;3.50;;
9997;SDS011;5038;53.064;8.624;2023-05-16T00:12:45;7.70;;;3.70;;
9997;SDS011;5038;53.064;8.624;2023-05-16T00:15:17;9.70;;;4.27;;
9997;SDS011;5038;53.064;8.624;2023-05-16T00:17:45;9.37;;;3.60;;
9997;SDS011;5038;53.064;8.624;2023-05-16T00:20:14;7.87;;;3.67;;
9997;SDS011;5038;53.064;8.624;2023-05-16T00:22:48;10.17;;;3.83;;
9997;SDS011;5038;53.064;8.624;2023-05-16T00:25:16;11.10;;;4.00;;
9997;SDS011;5038;53.064;8.624;2023-05-16T00:27:46;11.70;;;4.40;;
9997;SDS011;5038;53.064;8.624;2023-05-16T00:30:14;7.97;;;4.07;;
9997;SDS011;5038;53.064;8.624;2023-05-16T00:32:42;11.10;;;4.50;;
9997;SDS011;5038;53.064;8.624;2023-05-16T00:35:11;14.03;;;4.70;;
9997;SDS011;5038;53.064;8.624;2023-05-16T00:37:40;9.50;;;4.47;;
9997;SDS011;5038;53.064;8.624;2023-05-16T00:40:09;10.80;;;4.30;;
9997;SDS011;5038;53.064;8.624;2023-05-16T00:42:38;14.03;;;4.43;;
9997;SDS011;5038;53.064;8.624;2023-05-16T00:45:08;10.30;;;4.57;;
9997;SDS011;5038;53.064;8.624;2023-05-16T00:47:36;12.50;;;4.63;;
9997;SDS011;5038;53.064;8.624;2023-05-16T00:50:05;13.03;;;4.97;;
9997;SDS011;5038;53.064;8.624;2023-05-16T00:52:33;12.60;;;3.70;;
9997;SDS011;5038;53.064;8.624;2023-05-16T00:55:02;10.43;;;4.43;;
9997;SDS011;5038;53.064;8.624;2023-05-16T00:57:32;11.60;;;4.57;;
9997;SDS011;5038;53.064;8.624;2023-05-16T01:00:01;10.97;;;4.07;;
9997;SDS011;5038;53.064;8.624;2023-05-16T01:02:32;12.77;;;4.97;;
9997;SDS011;5038;53.064;8.624;2023-05-16T01:05:01;10.37;;;4.33;;
9997;SDS011;5038;53.064;8.624;2023-05-16T01:07:31;10.77;;;4.33;;
9997;SDS011;5038;53.064;8.624;2023-05-16T01:10:00;10.70;;;3.87;;
9997;SDS011;5038;53.064;8.624;2023-05-16T01:12:31;11.07;;;3.97;;
9997;SDS011;5038;53.064;8.624;2023-05-16T01:15:06;9.17;;;3.80;;
9997;SDS011;5038;53.064;8.624;2023-05-16T01:17:41;13.23;;;4.90;;
9997;SDS011;5038;53.064;8.624;2023-05-16T01:20:20;10.20;;;4.10;;
9997;SDS011;5038;53.064;8.624;2023-05-16T01:23:03;11.73;;;3.90;;
9997;SDS011;5038;53.064;8.624;2023-05-16T01:25:45;13.67;;;4.53;;
9997;SDS011;5038;53.064;8.624;2023-05-16T01:28:24;10.13;;;4.20;;
9997;SDS011;5038;53.064;8.624;2023-05-16T01:30:53;12.03;;;4.20;;
9997;SDS011;5038;53.064;8.624;2023-05-16T01:33:21;13.80;;;4.70;;
9997;SDS011;5038;53.064;8.624;2023-05-16T01:35:52;15.40;;;4.57;;
9997;SDS011;5038;53.064;8.624;2023-05-16T01:38:25;11.97;;;4.33;;
9997;SDS011;5038;53.064;8.624;2023-05-16T01:40:58;12.83;;;4.73;;
9997;SDS011;5038;53.064;8.624;2023-05-16T01:43:33;13.37;;;4.50;;
9997;SDS011;5038;53.064;8.624;2023-05-16T01:46:10;10.43;;;4.20;;
9997;SDS011;5038;53.064;8.624;2023-05-16T01:48:43;12.90;;;4.60;;
9997;SDS011;5038;53.064;8.624;2023-05-16T01:51:18;12.00;;;4.10;;
9997;SDS011;5038;53.064;8.624;2023-05-16T01:53:48;9.80;;;4.33;;
9997;SDS011;5038;53.064;8.624;2023-05-16T01:56:18;11.63;;;4.23;;
9997;SDS011;5038;53.064;8.624;2023-05-16T01:58:49;11.43;;;4.37;;
9997;SDS011;5038;53.064;8.624;2023-05-16T02:01:19;10.87;;;4.43;;
9997;SDS011;5038;53.064;8.624;2023-05-16T02:03:47;10.93;;;4.33;;
9997;SDS011;5038;53.064;8.624;2023-05-16T02:06:16;13.17;;;4.17;;
9997;SDS011;5038;53.064;8.624;2023-05-16T02:08:44;13.97;;;4.80;;
9997;SDS011;5038;53.064;8.624;2023-05-16T02:11:16;19.83;;;4.90;;
9997;SDS011;5038;53.064;8.624;2023-05-16T02:13:44;12.73;;;4.47;;
9997;SDS011;5038;53.064;8.624;2023-05-16T02:16:13;11.93;;;4.83;;
9997;SDS011;5038;53.064;8.624;2023-05-16T02:18:41;12.37;;;4.40;;
9997;SDS011;5038;53.064;8.624;2023-05-16T02:21:11;12.43;;;4.77;;
9997;SDS011;5038;53.064;8.624;2023-05-16T02:23:39;8.30;;;3.97;;
9997;SDS011;5038;53.064;8.624;2023-05-16T02:26:07;14.30;;;4.57;;
9997;SDS011;5038;53.064;8.624;2023-05-16T02:28:35;11.90;;;4.10;;
9997;SDS011;5038;53.064;8.624;2023-05-16T02:31:03;14.23;;;5.20;;
9997;SDS011;5038;53.064;8.624;2023-05-16T02:33:33;14.20;;;4.73;;
9997;SDS011;5038;53.064;8.624;2023-05-16T02:36:01;10.50;;;3.80;;
9997;SDS011;5038;53.064;8.624;2023-05-16T02:38:29;12.67;;;4.33;;
9997;SDS011;5038;53.064;8.624;2023-05-16T02:40:57;13.57;;;4.37;;
9997;SDS011;5038;53.064;8.624;2023-05-16T02:43:25;12.70;;;4.77;;
9997;SDS011;5038;53.064;8.624;2023-05-16T02:45:53;10.37;;;4.40;;
9997;SDS011;5038;53.064;8.624;2023-05-16T02:48:21;15.90;;;4.37;;
9997;SDS011;5038;53.064;8.624;2023-05-16T02:50:51;13.97;;;4.20;;
9997;SDS011;5038;53.064;8.624;2023-05-16T02:53:19;17.23;;;4.70;;
9997;SDS011;5038;53.064;8.624;2023-05-16T02:55:47;12.90;;;4.83;;
9997;SDS011;5038;53.064;8.624;2023-05-16T02:58:15;12.63;;;3.83;;
9997;SDS011;5038;53.064;8.624;2023-05-16T03:00:43;17.80;;;4.43;;
9997;SDS011;5038;53.064;8.624;2023-05-16T03:03:11;17.50;;;4.57;;
9997;SDS011;5038;53.064;8.624;2023-05-16T03:05:40;10.03;;;4.23;;
9997;SDS011;5038;53.064;8.624;2023-05-16T03:08:09;14.97;;;4.30;;
9997;SDS011;5038;53.064;8.624;2023-05-16T03:10:37;15.50;;;5.00;;
9997;SDS011;5038;53.064;8.624;2023-05-16T03:13:05;17.13;;;4.50;;
9997;SDS011;5038;53.064;8.624;2023-05-16T03:15:34;17.63;;;3.90;;
9997;SDS011;5038;53.064;8.624;2023-05-16T03:18:02;15.90;;;4.40;;
9997;SDS011;5038;53.064;8.624;2023-05-16T03:20:30;17.03;;;4.20;;
9997;SDS011;5038;53.064;8.624;2023-05-16T03:22:58;10.33;;;3.63;;
9997;SDS011;5038;53.064;8.624;2023-05-16T03:25:28;12.27;;;4.37;;
9997;SDS011;5038;53.064;8.624;2023-05-16T03:27:56;13.63;;;3.90;;
9997;SDS011;5038;53.064;8.624;2023-05-16T03:30:24;11.83;;;4.10;;
9997;SDS011;5038;53.064;8.624;2023-05-16T03:32:53;15.60;;;4.70;;
9997;SDS011;5038;53.064;8.624;2023-05-16T03:35:21;13.03;;;4.50;;
9997;SDS011;5038;53.064;8.624;2023-05-16T03:37:50;11.57;;;4.17;;
9997;SDS011;5038;53.064;8.624;2023-05-16T03:40:18;15.30;;;4.53;;
9997;SDS011;5038;53.064;8.624;2023-05-16T03:42:48;14.67;;;4.10;;
9997;SDS011;5038;53.064;8.624;2023-05-16T03:45:16;11.87;;;4.23;;
9997;SDS011;5038;53.064;8.624;2023-05-16T03:47:44;14.23;;;4.43;;
9997;SDS011;5038;53.064;8.624;2023-05-16T03:50:13;11.67;;;4.00;;
9997;SDS011;5038;53.064;8.624;2023-05-16T03:52:41;13.93;;;4.57;;
9997;SDS011;5038;53.064;8.624;2023-05-16T03:55:09;11.20;;;3.23;;
9997;SDS011;5038;53.064;8.624;2023-05-16T03:57:40;13.33;;;4.17;;
9997;SDS011;5038;53.064;8.624;2023-05-16T04:00:10;13.17;;;4.40;;
9997;SDS011;5038;53.064;8.624;2023-05-16T04:02:39;11.77;;;4.43;;
9997;SDS011;5038;53.064;8.624;2023-05-16T04:05:09;11.03;;;3.77;;
9997;SDS011;5038;53.064;8.624;2023-05-16T04:07:39;17.00;;;4.77;;
9997;SDS011;5038;53.064;8.624;2023-05-16T04:10:07;11.20;;;3.77;;
9997;SDS011;5038;53.064;8.624;2023-05-16T04:12:36;15.70;;;4.60;;
9997;SDS011;5038;53.064;8.624;2023-05-16T04:15:05;9.80;;;3.70;;
9997;SDS011;5038;53.064;8.624;2023-05-16T04:17:35;12.50;;;3.90;;
9997;SDS011;5038;53.064;8.624;2023-05-16T04:20:03;12.10;;;3.63;;
9997;SDS011;5038;53.064;8.624;2023-05-16T04:22:32;11.80;;;3.97;;
9997;SDS011;5038;53.064;8.624;2023-05-16T04:25:00;9.57;;;3.60;;
9997;SDS011;5038;53.064;8.624;2023-05-16T04:27:28;14.80;;;4.00;;
9997;SDS011;5038;53.064;8.624;2023-05-16T04:29:56;14.17;;;4.20;;
9997;SDS011;5038;53.064;8.624;2023-05-16T04:32:25;11.60;;;3.53;;
9997;SDS011;5038;53.064;8.624;2023-05-16T04:34:55;12.70;;;4.00;;
9997;SDS011;5038;53.064;8.624;2023-05-16T04:37:23;13.23;;;4.30;;
9997;SDS011;5038;53.064;8.624;2023-05-16T04:39:51;13.03;;;4.17;;
9997;SDS011;5038;53.064;8.624;2023-05-16T04:42:20;10.70;;;3.90;;
9997;SDS011;5038;53.064;8.624;2023-05-16T04:44:49;11.60;;;3.80;;
9997;SDS011;5038;53.064;8.624;2023-05-16T04:47:18;14.10;;;4.20;;
9997;SDS011;5038;53.064;8.624;2023-05-16T04:49:46;17.80;;;4.60;;
9997;SDS011;5038;53.064;8.624;2023-05-16T04:52:15;11.63;;;3.93;;
9997;SDS011;5038;53.064;8.624;2023-05-16T04:54:43;12.90;;;3.90;;
9997;SDS011;5038;53.064;8.624;2023-05-16T04:57:11;17.37;;;4.33;;
9997;SDS011;5038;53.064;8.624;2023-05-16T04:59:39;17.80;;;4.77;;
9997;SDS011;5038;53.064;8.624;2023-05-16T05:02:07;12.50;;;3.57;;
9997;SDS011;5038;53.064;8.624;2023-05-16T05:04:36;12.30;;;3.77;;
9997;SDS011;5038;53.064;8.624;2023-05-16T05:07:04;13.30;;;3.67;;
9997;SDS011;5038;53.064;8.624;2023-05-16T05:09:34;15.63;;;3.87;;
9997;SDS011;5038;53.064;8.624;2023-05-16T05:12:03;9.37;;;3.40;;
9997;SDS011;5038;53.064;8.624;2023-05-16T05:14:32;10.83;;;3.63;;
9997;SDS011;5038;53.064;8.624;2023-05-16T05:17:00;13.60;;;3.70;;
9997;SDS011;5038;53.064;8.624;2023-05-16T05:19:28;14.53;;;4.50;;
9997;SDS011;5038;53.064;8.624;2023-05-16T05:21:56;11.90;;;3.80;;
9997;SDS011;5038;53.064;8.624;2023-05-16T05:24:24;14.70;;;4.50;;
9997;SDS011;5038;53.064;8.624;2023-05-16T05:26:54;12.70;;;3.90;;
9997;SDS011;5038;53.064;8.624;2023-05-16T05:29:22;11.23;;;3.70;;
9997;SDS011;5038;53.064;8.624;2023-05-16T05:31:50;17.00;;;4.00;;
9997;SDS011;5038;53.064;8.624;2023-05-16T05:34:18;13.07;;;4.43;;
9997;SDS011;5038;53.064;8.624;2023-05-16T05:36:46;12.30;;;3.90;;
9997;SDS011;5038;53.064;8.624;2023-05-16T05:39:14;14.73;;;4.23;;
9997;SDS011;5038;53.064;8.624;2023-05-16T05:41:43;13.60;;;4.80;;
9997;SDS011;5038;53.064;8.624;2023-05-16T05:44:12;12.30;;;3.97;;
9997;SDS011;5038;53.064;8.624;2023-05-16T05:46:40;12.17;;;3.77;;
9997;SDS011;5038;53.064;8.624;2023-05-16T05:49:09;10.90;;;3.60;;
9997;SDS011;5038;53.064;8.624;2023-05-16T05:51:37;11.90;;;3.37;;
9997;SDS011;5038;53.064;8.624;2023-05-16T05:54:05;9.50;;;3.40;;
9997;SDS011;5038;53.064;8.624;2023-05-16T05:56:34;8.60;;;3.33;;
9997;SDS011;5038;53.064;8.624;2023-05-16T05:59:02;10.07;;;3.23;;
9997;SDS011;5038;53.064;8.624;2023-05-16T06:01:32;11.77;;;3.87;;
9997;SDS011;5038;53.064;8.624;2023-05-16T06:04:00;14.27;;;3.80;;
9997;SDS011;5038;53.064;8.624;2023-05-16T06:06:28;9.73;;;3.47;;
9997;SDS011;5038;53.064;8.624;2023-05-16T06:08:56;11.37;;;3.47;;
9997;SDS011;5038;53.064;8.624;2023-05-16T06:11:24;12.90;;;3.20;;
9997;SDS011;5038;53.064;8.624;2023-05-16T06:13:52;9.30;;;3.30;;
9997;SDS011;5038;53.064;8.624;2023-05-16T06:16:22;8.77;;;3.53;;
9997;SDS011;5038;53.064;8.624;2023-05-16T06:18:53;8.60;;;2.90;;
9997;SDS011;5038;53.064;8.624;2023-05-16T06:21:21;8.67;;;3.30;;
9997;SDS011;5038;53.064;8.624;2023-05-16T06:23:49;11.67;;;2.90;;
9997;SDS011;5038;53.064;8.624;2023-05-16T06:26:17;12.73;;;3.37;;
9997;SDS011;5038;53.064;8.624;2023-05-16T06:28:45;9.53;;;3.13;;
9997;SDS011;5038;53.064;8.624;2023-05-16T06:31:13;6.90;;;2.63;;
9997;SDS011;5038;53.064;8.624;2023-05-16T06:33:41;11.53;;;3.93;;
9997;SDS011;5038;53.064;8.624;2023-05-16T06:36:11;9.70;;;3.00;;
9997;SDS011;5038;53.064;8.624;2023-05-16T06:38:39;10.87;;;3.70;;
9997;SDS011;5038;53.064;8.624;2023-05-16T06:41:07;8.63;;;3.30;;
9997;SDS011;5038;53.064;8.624;2023-05-16T06:43:35;13.93;;;4.10;;
9997;SDS011;5038;53.064;8.624;2023-05-16T06:46:03;6.87;;;2.47;;
9997;SDS011;5038;53.064;8.624;2023-05-16T06:48:32;10.97;;;3.40;;
9997;SDS011;5038;53.064;8.624;2023-05-16T06:51:00;6.90;;;2.33;;
9997;SDS011;5038;53.064;8.624;2023-05-16T06:53:29;9.33;;;3.30;;
9997;SDS011;5038;53.064;8.624;2023-05-16T06:55:57;12.33;;;3.30;;
9997;SDS011;5038;53.064;8.624;2023-05-16T06:58:25;11.30;;;2.97;;
9997;SDS011;5038;53.064;8.624;2023-05-16T07:00:54;11.87;;;2.80;;
9997;SDS011;5038;53.064;8.624;2023-05-16T07:03:22;7.60;;;2.40;;
9997;SDS011;5038;53.064;8.624;2023-05-16T07:05:50;11.00;;;3.27;;
9997;SDS011;5038;53.064;8.624;2023-05-16T07:08:19;7.80;;;2.30;;
9997;SDS011;5038;53.064;8.624;2023-05-16T07:10:48;12.70;;;3.03;;
9997;SDS011;5038;53.064;8.624;2023-05-16T07:13:16;7.97;;;2.70;;
9997;SDS011;5038;53.064;8.624;2023-05-16T07:15:44;10.10;;;2.47;;
9997;SDS011;5038;53.064;8.624;2023-05-16T07:18:12;9.10;;;1.97;;
9997;SDS011;5038;53.064;8.624;2023-05-16T07:20:41;8.33;;;2.50;;
9997;SDS011;5038;53.064;8.624;2023-05-16T07:23:09;9.73;;;2.70;;
9997;SDS011;5038;53.064;8.624;2023-05-16T07:25:37;8.50;;;2.60;;
9997;SDS011;5038;53.064;8.624;2023-05-16T07:28:06;7.00;;;2.63;;
9997;SDS011;5038;53.064;8.624;2023-05-16T07:30:35;5.33;;;2.00;;
9997;SDS011;5038;53.064;8.624;2023-05-16T07:33:03;9.70;;;2.60;;
9997;SDS011;5038;53.064;8.624;2023-05-16T07:35:31;7.80;;;2.50;;
9997;SDS011;5038;53.064;8.624;2023-05-16T07:37:59;8.83;;;2.73;;
9997;SDS011;5038;53.064;8.624;2023-05-16T07:40:27;7.57;;;2.40;;
9997;SDS011;5038;53.064;8.624;2023-05-16T07:42:56;7.77;;;2.33;;
9997;SDS011;5038;53.064;8.624;2023-05-16T07:45:26;6.60;;;2.70;;
9997;SDS011;5038;53.064;8.624;2023-05-16T07:47:55;8.93;;;2.60;;
9997;SDS011;5038;53.064;8.624;2023-05-16T07:50:23;8.90;;;2.23;;
9997;SDS011;5038;53.064;8.624;2023-05-16T07:52:51;7.60;;;2.30;;
9997;SDS011;5038;53.064;8.624;2023-05-16T07:55:20;8.37;;;2.47;;
9997;SDS011;5038;53.064;8.624;2023-05-16T07:57:48;9.10;;;2.43;;
9997;SDS011;5038;53.064;8.624;2023-05-16T08:00:17;10.07;;;3.07;;
9997;SDS011;5038;53.064;8.624;2023-05-16T08:02:48;14.40;;;2.20;;
9997;SDS011;5038;53.064;8.624;2023-05-16T08:05:16;7.47;;;2.30;;
9997;SDS011;5038;53.064;8.624;2023-05-16T08:07:44;9.47;;;2.87;;
9997;SDS011;5038;53.064;8.624;2023-05-16T08:10:12;7.83;;;2.53;;
9997;SDS011;5038;53.064;8.624;2023-05-16T08:12:41;8.73;;;2.17;;
9997;SDS011;5038;53.064;8.624;2023-05-16T08:15:11;7.17;;;2.20;;
9997;SDS011;5038;53.064;8.624;2023-05-16T08:17:39;7.13;;;2.50;;
9997;SDS011;5038;53.064;8.624;2023-05-16T08:20:09;8.10;;;2.23;;
9997;SDS011;5038;53.064;8.624;2023-05-16T08:22:38;7.13;;;1.80;;
9997;SDS011;5038;53.064;8.624;2023-05-16T08:25:07;7.77;;;2.60;;
9997;SDS011;5038;53.064;8.624;2023-05-16T08:27:35;11.97;;;2.70;;
9997;SDS011;5038;53.064;8.624;2023-05-16T08:30:04;7.67;;;2.73;;
9997;SDS011;5038;53.064;8.624;2023-05-16T08:32:32;9.33;;;2.90;;
9997;SDS011;5038;53.064;8.624;2023-05-16T08:35:01;7.60;;;2.13;;
9997;SDS011;5038;53.064;8.624;2023-05-16T08:37:30;6.20;;;1.93;;
9997;SDS011;5038;53.064;8.624;2023-05-16T08:39:59;6.77;;;1.90;;
9997;SDS011;5038;53.064;8.624;2023-05-16T08:42:27;10.83;;;2.67;;
9997;SDS011;5038;53.064;8.624;2023-05-16T08:44:55;9.53;;;2.30;;
9997;SDS011;5038;53.064;8.624;2023-05-16T08:47:23;7.00;;;2.57;;
9997;SDS011;5038;53.064;8.624;2023-05-16T08:49:53;8.03;;;2.40;;
9997;SDS011;5038;53.064;8.624;2023-05-16T08:52:25;9.73;;;2.47;;
9997;SDS011;5038;53.064;8.624;2023-05-16T08:54:56;9.33;;;2.50;;
9997;SDS011;5038;53.064;8.624;2023-05-16T08:57:37;6.30;;;2.00;;
9997;SDS011;5038;53.064;8.624;2023-05-16T09:00:05;6.83;;;2.00;;
9997;SDS011;5038;53.064;8.624;2023-05-16T09:02:38;5.83;;;1.93;;
9997;SDS011;5038;53.064;8.624;2023-05-16T09:05:07;6.60;;;2.23;;
9997;SDS011;5038;53.064;8.624;2023-05-16T09:07:37;5.70;;;2.10;;
9997;SDS011;5038;53.064;8.624;2023-05-16T09:10:08;8.87;;;2.50;;
9997;SDS011;5038;53.064;8.624;2023-05-16T09:12:37;6.60;;;2.80;;
9997;SDS011;5038;53.064;8.624;2023-05-16T09:15:07;6.33;;;2.17;;
9997;SDS011;5038;53.064;8.624;2023-05-16T09:17:36;8.53;;;2.43;;
9997;SDS011;5038;53.064;8.624;2023-05-16T09:20:08;6.60;;;2.10;;
9997;SDS011;5038;53.064;8.624;2023-05-16T09:22:38;7.90;;;2.43;;
9997;SDS011;5038;53.064;8.624;2023-05-16T09:25:08;6.67;;;2.60;;
9997;SDS011;5038;53.064;8.624;2023-05-16T09:27:56;5.70;;;2.60;;
9997;SDS011;5038;53.064;8.624;2023-05-16T09:30:27;10.63;;;2.60;;
9997;SDS011;5038;53.064;8.624;2023-05-16T09:32:57;6.40;;;2.20;;
9997;SDS011;5038;53.064;8.624;2023-05-16T09:35:25;5.40;;;1.70;;
9997;SDS011;5038;53.064;8.624;2023-05-16T09:38:12;4.73;;;1.93;;
9997;SDS011;5038;53.064;8.624;2023-05-16T09:40:43;5.80;;;1.90;;
9997;SDS011;5038;53.064;8.624;2023-05-16T09:43:13;6.17;;;2.07;;
9997;SDS011;5038;53.064;8.624;2023-05-16T09:45:44;6.63;;;1.90;;
9997;SDS011;5038;53.064;8.624;2023-05-16T09:48:14;8.33;;;1.83;;
9997;SDS011;5038;53.064;8.624;2023-05-16T09:50:46;7.47;;;2.07;;
9997;SDS011;5038;53.064;8.624;2023-05-16T09:53:17;4.70;;;2.20;;
9997;SDS011;5038;53.064;8.624;2023-05-16T09:56:01;6.80;;;2.17;;
9997;SDS011;5038;53.064;8.624;2023-05-16T09:58:30;6.40;;;2.27;;
9997;SDS011;5038;53.064;8.624;2023-05-16T10:01:00;5.97;;;2.30;;
9997;SDS011;5038;53.064;8.624;2023-05-16T10:03:28;8.50;;;2.50;;
9997;SDS011;5038;53.064;8.624;2023-05-16T10:05:57;7.37;;;2.27;;
9997;SDS011;5038;53.064;8.624;2023-05-16T10:08:26;7.27;;;2.17;;
9997;SDS011;5038;53.064;8.624;2023-05-16T10:10:57;5.53;;;2.40;;
9997;SDS011;5038;53.064;8.624;2023-05-16T10:13:27;7.70;;;2.20;;
9997;SDS011;5038;53.064;8.624;2023-05-16T10:15:57;8.37;;;2.73;;
9997;SDS011;5038;53.064;8.624;2023-05-16T10:18:27;5.33;;;1.77;;
9997;SDS011;5038;53.064;8.624;2023-05-16T10:20:58;5.67;;;2.13;;
9997;SDS011;5038;53.064;8.624;2023-05-16T10:23:31;5.73;;;1.60;;
9997;SDS011;5038;53.064;8.624;2023-05-16T10:26:01;5.90;;;2.07;;
9997;SDS011;5038;53.064;8.624;2023-05-16T10:28:32;5.27;;;2.20;;
9997;SDS011;5038;53.064;8.624;2023-05-16T10:31:02;6.83;;;1.97;;
9997;SDS011;5038;53.064;8.624;2023-05-16T10:33:32;6.33;;;2.00;;
9997;SDS011;5038;53.064;8.624;2023-05-16T10:36:02;7.10;;;2.10;;
9997;SDS011;5038;53.064;8.624;2023-05-16T10:38:31;5.83;;;2.10;;
9997;SDS011;5038;53.064;8.624;2023-05-16T10:41:00;7.50;;;2.33;;
9997;SDS011;5038;53.064;8.624;2023-05-16T10:43:29;6.20;;;2.47;;
9997;SDS011;5038;53.064;8.624;2023-05-16T10:46:01;8.67;;;2.50;;
9997;SDS011;5038;53.064;8.624;2023-05-16T10:48:31;4.80;;;2.00;;
9997;SDS011;5038;53.064;8.624;2023-05-16T10:51:01;5.00;;;1.60;;
9997;SDS011;5038;53.064;8.624;2023-05-16T10:53:31;6.47;;;1.90;;
9997;SDS011;5038;53.064;8.624;2023-05-16T10:56:06;5.57;;;1.73;;
9997;SDS011;5038;53.064;8.624;2023-05-16T10:58:39;3.83;;;1.70;;
9997;SDS011;5038;53.064;8.624;2023-05-16T11:01:15;4.50;;;1.77;;
9997;SDS011;5038;53.064;8.624;2023-05-16T11:04:03;6.30;;;1.80;;
9997;SDS011;5038;53.064;8.624;2023-05-16T11:06:34;5.43;;;1.67;;
9997;SDS011;5038;53.064;8.624;2023-05-16T11:09:23;6.53;;;2.23;;
9997;SDS011;5038;53.064;8.624;2023-05-16T11:12:02;5.50;;;1.90;;
9997;SDS011;5038;53.064;8.624;2023-05-16T11:14:35;7.70;;;2.03;;
9997;SDS011;5038;53.064;8.624;2023-05-16T11:17:10;7.73;;;2.20;;
9997;SDS011;5038;53.064;8.624;2023-05-16T11:19:40;6.40;;;3.00;;
9997;SDS011;5038;53.064;8.624;2023-05-16T11:22:11;5.97;;;2.20;;
9997;SDS011;5038;53.064;8.624;2023-05-16T11:24:54;10.10;;;2.70;;
9997;SDS011;5038;53.064;8.624;2023-05-16T11:27:25;6.37;;;2.10;;
9997;SDS011;5038;53.064;8.624;2023-05-16T11:29:57;7.00;;;2.33;;
9997;SDS011;5038;53.064;8.624;2023-05-16T11:32:32;8.53;;;2.93;;
9997;SDS011;5038;53.064;8.624;2023-05-16T11:35:02;6.63;;;2.60;;
9997;SDS011;5038;53.064;8.624;2023-05-16T11:37:31;6.70;;;2.47;;
9997;SDS011;5038;53.064;8.624;2023-05-16T11:39:59;5.60;;;2.50;;
9997;SDS011;5038;53.064;8.624;2023-05-16T11:42:28;7.57;;;2.10;;
9997;SDS011;5038;53.064;8.624;2023-05-16T11:45:03;8.73;;;2.20;;
9997;SDS011;5038;53.064;8.624;2023-05-16T11:47:34;8.50;;;2.87;;
9997;SDS011;5038;53.064;8.624;2023-05-16T11:50:04;12.43;;;3.00;;
9997;SDS011;5038;53.064;8.624;2023-05-16T11:52:33;6.90;;;2.20;;
9997;SDS011;5038;53.064;8.624;2023-05-16T11:55:01;7.27;;;2.20;;
9997;SDS011;5038;53.064;8.624;2023-05-16T11:57:32;6.37;;;1.90;;
9997;SDS011;5038;53.064;8.624;2023-05-16T12:00:01;8.83;;;2.27;;
9997;SDS011;5038;53.064;8.624;2023-05-16T12:02:34;5.87;;;2.10;;
9997;SDS011;5038;53.064;8.624;2023-05-16T12:05:06;6.90;;;2.30;;
9997;SDS011;5038;53.064;8.624;2023-05-16T12:07:35;5.17;;;2.10;;
9997;SDS011;5038;53.064;8.624;2023-05-16T12:10:04;4.60;;;2.10;;
9997;SDS011;5038;53.064;8.624;2023-05-16T12:12:33;7.17;;;2.80;;
9997;SDS011;5038;53.064;8.624;2023-05-16T12:15:01;5.70;;;2.50;;
9997;SDS011;5038;53.064;8.624;2023-05-16T12:17:31;5.80;;;2.10;;
9997;SDS011;5038;53.064;8.624;2023-05-16T12:20:02;5.20;;;2.40;;
9997;SDS011;5038;53.064;8.624;2023-05-16T12:22:32;6.10;;;2.50;;
9997;SDS011;5038;53.064;8.624;2023-05-16T12:27:51;6.60;;;2.70;;
9997;SDS011;5038;53.064;8.624;2023-05-16T12:30:21;7.10;;;2.43;;
9997;SDS011;5038;53.064;8.624;2023-05-16T12:33:00;6.80;;;2.57;;
9997;SDS011;5038;53.064;8.624;2023-05-16T12:35:36;6.40;;;2.10;;
9997;SDS011;5038;53.064;8.624;2023-05-16T12:38:07;5.83;;;2.27;;
9997;SDS011;5038;53.064;8.624;2023-05-16T12:40:36;6.20;;;2.47;;
9997;SDS011;5038;53.064;8.624;2023-05-16T12:43:11;9.80;;;2.90;;
9997;SDS011;5038;53.064;8.624;2023-05-16T12:45:40;7.03;;;2.83;;
9997;SDS011;5038;53.064;8.624;2023-05-16T12:48:12;6.90;;;2.00;;
9997;SDS011;5038;53.064;8.624;2023-05-16T12:50:42;7.33;;;2.60;;
9997;SDS011;5038;53.064;8.624;2023-05-16T12:53:12;7.03;;;2.40;;
9997;SDS011;5038;53.064;8.624;2023-05-16T12:55:40;6.17;;;2.23;;
9997;SDS011;5038;53.064;8.624;2023-05-16T12:58:09;6.60;;;2.57;;
9997;SDS011;5038;53.064;8.624;2023-05-16T13:00:38;8.30;;;2.67;;
9997;SDS011;5038;53.064;8.624;2023-05-16T13:03:07;7.60;;;2.10;;
9997;SDS011;5038;53.064;8.624;2023-05-16T13:05:35;6.47;;;2.20;;
9997;SDS011;5038;53.064;8.624;2023-05-16T13:08:05;5.80;;;2.20;;
9997;SDS011;5038;53.064;8.624;2023-05-16T13:10:34;7.70;;;2.53;;
9997;SDS011;5038;53.064;8.624;2023-05-16T13:13:02;9.53;;;2.47;;
9997;SDS011;5038;53.064;8.624;2023-05-16T13:15:30;11.40;;;2.60;;
9997;SDS011;5038;53.064;8.624;2023-05-16T13:17:58;8.13;;;2.33;;
9997;SDS011;5038;53.064;8.624;2023-05-16T13:20:27;8.90;;;2.77;;
9997;SDS011;5038;53.064;8.624;2023-05-16T13:22:56;7.97;;;2.53;;
9997;SDS011;5038;53.064;8.624;2023-05-16T13:25:25;7.93;;;2.70;;
9997;SDS011;5038;53.064;8.624;2023-05-16T13:27:54;8.20;;;2.20;;
9997;SDS011;5038;53.064;8.624;2023-05-16T13:30:22;8.27;;;3.03;;
9997;SDS011;5038;53.064;8.624;2023-05-16T13:32:50;9.43;;;3.00;;
9997;SDS011;5038;53.064;8.624;2023-05-16T13:35:18;8.90;;;2.70;;
9997;SDS011;5038;53.064;8.624;2023-05-16T13:37:46;8.60;;;2.33;;
9997;SDS011;5038;53.064;8.624;2023-05-16T13:40:15;6.70;;;2.50;;
9997;SDS011;5038;53.064;8.624;2023-05-16T13:42:44;6.93;;;2.33;;
9997;SDS011;5038;53.064;8.624;2023-05-16T13:45:12;5.60;;;1.80;;
9997;SDS011;5038;53.064;8.624;2023-05-16T13:47:41;8.73;;;1.70;;
9997;SDS011;5038;53.064;8.624;2023-05-16T13:50:12;6.73;;;2.20;;
9997;SDS011;5038;53.064;8.624;2023-05-16T13:52:40;6.70;;;2.13;;
9997;SDS011;5038;53.064;8.624;2023-05-16T13:55:09;6.23;;;2.20;;
9997;SDS011;5038;53.064;8.624;2023-05-16T13:57:37;7.20;;;1.97;;
9997;SDS011;5038;53.064;8.624;2023-05-16T14:00:07;6.03;;;2.40;;
9997;SDS011;5038;53.064;8.624;2023-05-16T14:02:41;6.43;;;2.47;;
9997;SDS011;5038;53.064;8.624;2023-05-16T14:05:10;5.13;;;1.60;;
9997;SDS011;5038;53.064;8.624;2023-05-16T14:07:38;4.93;;;1.57;;
9997;SDS011;5038;53.064;8.624;2023-05-16T14:10:07;6.47;;;2.07;;
9997;SDS011;5038;53.064;8.624;2023-05-16T14:12:35;6.00;;;2.10;;
9997;SDS011;5038;53.064;8.624;2023-05-16T14:15:04;6.20;;;2.10;;
9997;SDS011;5038;53.064;8.624;2023-05-16T14:17:35;7.20;;;2.23;;
9997;SDS011;5038;53.064;8.624;2023-05-16T14:20:03;8.60;;;2.30;;
9997;SDS011;5038;53.064;8.624;2023-05-16T14:22:35;5.53;;;2.00;;
9997;SDS011;5038;53.064;8.624;2023-05-16T14:25:04;7.10;;;2.30;;
9997;SDS011;5038;53.064;8.624;2023-05-16T14:27:33;5.77;;;2.30;;
9997;SDS011;5038;53.064;8.624;2023-05-16T14:30:01;6.40;;;2.10;;
9997;SDS011;5038;53.064;8.624;2023-05-16T14:32:31;6.30;;;1.57;;
9997;SDS011;5038;53.064;8.624;2023-05-16T14:34:59;6.50;;;2.17;;
9997;SDS011;5038;53.064;8.624;2023-05-16T14:37:27;5.80;;;2.40;;
9997;SDS011;5038;53.064;8.624;2023-05-16T14:39:55;5.33;;;2.20;;
9997;SDS011;5038;53.064;8.624;2023-05-16T14:42:24;9.77;;;2.47;;
9997;SDS011;5038;53.064;8.624;2023-05-16T14:44:53;6.30;;;1.97;;
9997;SDS011;5038;53.064;8.624;2023-05-16T14:47:21;7.80;;;2.40;;
9997;SDS011;5038;53.064;8.624;2023-05-16T14:49:51;7.67;;;2.13;;
9997;SDS011;5038;53.064;8.624;2023-05-16T14:52:19;10.23;;;2.90;;
9997;SDS011;5038;53.064;8.624;2023-05-16T14:54:47;8.27;;;2.20;;
9997;SDS011;5038;53.064;8.624;2023-05-16T14:57:16;9.57;;;2.40;;
9997;SDS011;5038;53.064;8.624;2023-05-16T14:59:44;6.73;;;2.70;;
9997;SDS011;5038;53.064;8.624;2023-05-16T15:02:12;9.07;;;2.43;;
9997;SDS011;5038;53.064;8.624;2023-05-16T15:04:40;10.10;;;3.50;;
9997;SDS011;5038;53.064;8.624;2023-05-16T15:07:10;6.23;;;2.67;;
9997;SDS011;5038;53.064;8.624;2023-05-16T15:09:40;6.20;;;2.43;;
9997;SDS011;5038;53.064;8.624;2023-05-16T15:12:08;7.77;;;2.83;;
9997;SDS011;5038;53.064;8.624;2023-05-16T15:14:36;5.60;;;2.50;;
9997;SDS011;5038;53.064;8.624;2023-05-16T15:17:04;7.43;;;2.43;;
9997;SDS011;5038;53.064;8.624;2023-05-16T15:19:34;10.77;;;3.07;;
9997;SDS011;5038;53.064;8.624;2023-05-16T15:22:02;8.00;;;2.70;;
9997;SDS011;5038;53.064;8.624;2023-05-16T15:24:34;6.90;;;3.03;;
9997;SDS011;5038;53.064;8.624;2023-05-16T15:27:02;6.87;;;3.00;;